sensor_id;sensor_type;location;lat;lon;timestamp;P1;durP1;ratioP1;P2;durP2;ratioP2
9898;SDS011;4988;49.238;6.698;2024-01-16T00:00:10;12.17;;;7.03;;
9898;SDS011;4988;49.238;6.698;2024-01-16T00:02:36;17.47;;;6.30;;
9898;SDS011;4988;49.238;6.698;2024-01-16T00:05:01;13.23;;;6.87;;
9898;SDS011;4988;49.238;6.698;2024-01-16T00:07:28;11.18;;;5.90;;
9898;SDS011;4988;49.238;6.698;2024-01-16T00:09:53;11.07;;;7.07;;
9898;SDS011;4988;49.238;6.698;2024-01-16T00:12:19;8.17;;;5.70;;
9898;SDS011;4988;49.238;6.698;2024-01-16T00:14:44;15.10;;;6.40;;
9898;SDS011;4988;49.238;6.698;2024-01-16T00:17:10;12.33;;;7.17;;
9898;SDS011;4988;49.238;6.698;2024-01-16T00:19:36;11.48;;;6.00;;
9898;SDS011;4988;49.238;6.698;2024-01-16T00:22:01;10.87;;;6.50;;
9898;SDS011;4988;49.238;6.698;2024-01-16T00:24:29;12.05;;;6.50;;
9898;SDS011;4988;49.238;6.698;2024-01-16T00:26:54;8.60;;;5.60;;
9898;SDS011;4988;49.238;6.698;2024-01-16T00:29:19;9.33;;;5.93;;
9898;SDS011;4988;49.238;6.698;2024-01-16T00:31:45;10.93;;;5.73;;
9898;SDS011;4988;49.238;6.698;2024-01-16T00:34:10;14.23;;;5.60;;
9898;SDS011;4988;49.238;6.698;2024-01-16T00:36:36;12.27;;;6.10;;
9898;SDS011;4988;49.238;6.698;2024-01-16T00:39:01;10.40;;;6.23;;
9898;SDS011;4988;49.238;6.698;2024-01-16T00:41:28;10.38;;;5.82;;
9898;SDS011;4988;49.238;6.698;2024-01-16T00:43:53;14.03;;;6.10;;
9898;SDS011;4988;49.238;6.698;2024-01-16T00:46:18;11.87;;;6.00;;
9898;SDS011;4988;49.238;6.698;2024-01-16T00:48:44;13.10;;;5.80;;
9898;SDS011;4988;49.238;6.698;2024-01-16T00:51:09;11.03;;;6.40;;
9898;SDS011;4988;49.238;6.698;2024-01-16T00:53:39;10.47;;;5.50;;
9898;SDS011;4988;49.238;6.698;2024-01-16T00:56:08;9.70;;;5.18;;
9898;SDS011;4988;49.238;6.698;2024-01-16T00:58:33;13.43;;;5.73;;
9898;SDS011;4988;49.238;6.698;2024-01-16T01:00:59;9.10;;;5.70;;
9898;SDS011;4988;49.238;6.698;2024-01-16T01:03:24;13.27;;;6.30;;
9898;SDS011;4988;49.238;6.698;2024-01-16T01:05:49;9.27;;;5.90;;
9898;SDS011;4988;49.238;6.698;2024-01-16T01:08:15;10.97;;;6.57;;
9898;SDS011;4988;49.238;6.698;2024-01-16T01:10:41;16.30;;;5.93;;
9898;SDS011;4988;49.238;6.698;2024-01-16T01:13:06;12.40;;;5.77;;
9898;SDS011;4988;49.238;6.698;2024-01-16T01:15:32;9.57;;;5.73;;
9898;SDS011;4988;49.238;6.698;2024-01-16T01:17:57;11.60;;;6.07;;
9898;SDS011;4988;49.238;6.698;2024-01-16T01:20:22;9.33;;;5.80;;
9898;SDS011;4988;49.238;6.698;2024-01-16T01:22:48;12.50;;;5.67;;
9898;SDS011;4988;49.238;6.698;2024-01-16T01:25:13;10.90;;;6.37;;
9898;SDS011;4988;49.238;6.698;2024-01-16T01:27:39;8.90;;;6.10;;
9898;SDS011;4988;49.238;6.698;2024-01-16T01:30:05;9.43;;;5.45;;
9898;SDS011;4988;49.238;6.698;2024-01-16T01:32:32;10.25;;;5.68;;
9898;SDS011;4988;49.238;6.698;2024-01-16T01:34:57;12.20;;;5.93;;
9898;SDS011;4988;49.238;6.698;2024-01-16T01:37:23;10.07;;;5.50;;
9898;SDS011;4988;49.238;6.698;2024-01-16T01:39:48;10.83;;;5.60;;
9898;SDS011;4988;49.238;6.698;2024-01-16T01:42:15;12.50;;;6.57;;
9898;SDS011;4988;49.238;6.698;2024-01-16T01:44:40;11.60;;;6.10;;
9898;SDS011;4988;49.238;6.698;2024-01-16T01:47:06;9.63;;;5.88;;
9898;SDS011;4988;49.238;6.698;2024-01-16T01:49:33;9.10;;;5.57;;
9898;SDS011;4988;49.238;6.698;2024-01-16T01:51:59;10.60;;;5.37;;
9898;SDS011;4988;49.238;6.698;2024-01-16T01:54:24;9.77;;;6.37;;
9898;SDS011;4988;49.238;6.698;2024-01-16T01:56:51;15.60;;;5.95;;
9898;SDS011;4988;49.238;6.698;2024-01-16T01:59:17;11.17;;;6.20;;
9898;SDS011;4988;49.238;6.698;2024-01-16T02:01:46;12.25;;;6.72;;
9898;SDS011;4988;49.238;6.698;2024-01-16T02:04:16;9.98;;;5.85;;
9898;SDS011;4988;49.238;6.698;2024-01-16T02:06:42;13.55;;;5.55;;
9898;SDS011;4988;49.238;6.698;2024-01-16T02:09:09;12.02;;;6.13;;
9898;SDS011;4988;49.238;6.698;2024-01-16T02:11:35;9.63;;;6.53;;
9898;SDS011;4988;49.238;6.698;2024-01-16T02:14:00;8.50;;;5.80;;
9898;SDS011;4988;49.238;6.698;2024-01-16T02:16:25;11.23;;;5.70;;
9898;SDS011;4988;49.238;6.698;2024-01-16T02:18:51;8.50;;;5.90;;
9898;SDS011;4988;49.238;6.698;2024-01-16T02:21:18;10.48;;;5.57;;
9898;SDS011;4988;49.238;6.698;2024-01-16T02:23:46;11.88;;;5.43;;
9898;SDS011;4988;49.238;6.698;2024-01-16T02:26:11;8.60;;;5.77;;
9898;SDS011;4988;49.238;6.698;2024-01-16T02:28:41;10.30;;;6.05;;
9898;SDS011;4988;49.238;6.698;2024-01-16T02:31:07;10.47;;;5.63;;
9898;SDS011;4988;49.238;6.698;2024-01-16T02:33:33;10.52;;;5.72;;
9898;SDS011;4988;49.238;6.698;2024-01-16T02:35:58;10.77;;;5.87;;
9898;SDS011;4988;49.238;6.698;2024-01-16T02:38:23;10.37;;;6.03;;
9898;SDS011;4988;49.238;6.698;2024-01-16T02:40:49;12.40;;;6.13;;
9898;SDS011;4988;49.238;6.698;2024-01-16T02:43:15;10.60;;;5.70;;
9898;SDS011;4988;49.238;6.698;2024-01-16T02:45:40;12.00;;;5.73;;
9898;SDS011;4988;49.238;6.698;2024-01-16T02:48:06;9.47;;;5.77;;
9898;SDS011;4988;49.238;6.698;2024-01-16T02:50:31;12.93;;;6.70;;
9898;SDS011;4988;49.238;6.698;2024-01-16T02:52:56;12.53;;;5.63;;
9898;SDS011;4988;49.238;6.698;2024-01-16T02:55:21;10.27;;;5.80;;
9898;SDS011;4988;49.238;6.698;2024-01-16T02:57:47;15.23;;;6.40;;
9898;SDS011;4988;49.238;6.698;2024-01-16T03:00:12;9.33;;;5.53;;
9898;SDS011;4988;49.238;6.698;2024-01-16T03:02:38;7.90;;;6.00;;
9898;SDS011;4988;49.238;6.698;2024-01-16T03:05:04;8.80;;;5.47;;
9898;SDS011;4988;49.238;6.698;2024-01-16T03:07:30;9.23;;;5.37;;
9898;SDS011;4988;49.238;6.698;2024-01-16T03:09:55;11.67;;;5.47;;
9898;SDS011;4988;49.238;6.698;2024-01-16T03:12:20;11.43;;;6.33;;
9898;SDS011;4988;49.238;6.698;2024-01-16T03:14:46;10.87;;;5.77;;
9898;SDS011;4988;49.238;6.698;2024-01-16T03:17:11;7.50;;;4.97;;
9898;SDS011;4988;49.238;6.698;2024-01-16T03:19:36;10.83;;;5.50;;
9898;SDS011;4988;49.238;6.698;2024-01-16T03:22:02;15.03;;;6.10;;
9898;SDS011;4988;49.238;6.698;2024-01-16T03:24:28;10.10;;;5.88;;
9898;SDS011;4988;49.238;6.698;2024-01-16T03:26:54;12.33;;;5.73;;
9898;SDS011;4988;49.238;6.698;2024-01-16T03:29:19;10.53;;;6.00;;
9898;SDS011;4988;49.238;6.698;2024-01-16T03:31:45;13.60;;;5.77;;
9898;SDS011;4988;49.238;6.698;2024-01-16T03:34:10;15.03;;;6.23;;
9898;SDS011;4988;49.238;6.698;2024-01-16T03:36:36;11.00;;;6.63;;
9898;SDS011;4988;49.238;6.698;2024-01-16T03:39:02;12.10;;;5.87;;
9898;SDS011;4988;49.238;6.698;2024-01-16T03:41:27;10.90;;;5.73;;
9898;SDS011;4988;49.238;6.698;2024-01-16T03:43:53;10.57;;;5.87;;
9898;SDS011;4988;49.238;6.698;2024-01-16T03:46:21;12.82;;;6.35;;
9898;SDS011;4988;49.238;6.698;2024-01-16T03:48:47;8.23;;;5.93;;
9898;SDS011;4988;49.238;6.698;2024-01-16T03:51:12;9.70;;;6.03;;
9898;SDS011;4988;49.238;6.698;2024-01-16T03:53:40;11.80;;;6.40;;
9898;SDS011;4988;49.238;6.698;2024-01-16T03:56:06;8.43;;;5.07;;
9898;SDS011;4988;49.238;6.698;2024-01-16T03:58:32;12.30;;;5.85;;
9898;SDS011;4988;49.238;6.698;2024-01-16T04:00:58;13.27;;;5.77;;
9898;SDS011;4988;49.238;6.698;2024-01-16T04:03:23;12.17;;;6.03;;
9898;SDS011;4988;49.238;6.698;2024-01-16T04:05:49;10.33;;;6.13;;
9898;SDS011;4988;49.238;6.698;2024-01-16T04:08:14;10.10;;;5.47;;
9898;SDS011;4988;49.238;6.698;2024-01-16T04:10:40;9.30;;;5.97;;
9898;SDS011;4988;49.238;6.698;2024-01-16T04:13:07;11.80;;;6.40;;
9898;SDS011;4988;49.238;6.698;2024-01-16T04:15:32;10.67;;;5.53;;
9898;SDS011;4988;49.238;6.698;2024-01-16T04:17:59;11.67;;;6.37;;
9898;SDS011;4988;49.238;6.698;2024-01-16T04:20:24;9.32;;;5.40;;
9898;SDS011;4988;49.238;6.698;2024-01-16T04:22:50;12.67;;;6.27;;
9898;SDS011;4988;49.238;6.698;2024-01-16T04:25:15;9.47;;;5.53;;
9898;SDS011;4988;49.238;6.698;2024-01-16T04:27:41;8.37;;;5.73;;
9898;SDS011;4988;49.238;6.698;2024-01-16T04:30:06;14.70;;;6.17;;
9898;SDS011;4988;49.238;6.698;2024-01-16T04:32:32;9.13;;;6.53;;
9898;SDS011;4988;49.238;6.698;2024-01-16T04:34:58;13.63;;;6.13;;
9898;SDS011;4988;49.238;6.698;2024-01-16T04:37:23;9.63;;;6.30;;
9898;SDS011;4988;49.238;6.698;2024-01-16T04:39:49;12.07;;;6.53;;
9898;SDS011;4988;49.238;6.698;2024-01-16T04:42:14;11.13;;;6.73;;
9898;SDS011;4988;49.238;6.698;2024-01-16T04:44:42;13.77;;;6.85;;
9898;SDS011;4988;49.238;6.698;2024-01-16T04:47:08;14.60;;;8.40;;
9898;SDS011;4988;49.238;6.698;2024-01-16T04:49:33;18.90;;;8.87;;
9898;SDS011;4988;49.238;6.698;2024-01-16T04:51:58;15.83;;;7.33;;
9898;SDS011;4988;49.238;6.698;2024-01-16T04:54:23;20.90;;;7.90;;
9898;SDS011;4988;49.238;6.698;2024-01-16T04:56:49;17.53;;;7.77;;
9898;SDS011;4988;49.238;6.698;2024-01-16T04:59:14;16.63;;;8.17;;
9898;SDS011;4988;49.238;6.698;2024-01-16T05:01:39;13.90;;;7.63;;
9898;SDS011;4988;49.238;6.698;2024-01-16T05:04:05;12.60;;;7.37;;
9898;SDS011;4988;49.238;6.698;2024-01-16T05:06:32;12.43;;;6.57;;
9898;SDS011;4988;49.238;6.698;2024-01-16T05:08:58;11.93;;;6.07;;
9898;SDS011;4988;49.238;6.698;2024-01-16T05:11:23;11.63;;;6.53;;
9898;SDS011;4988;49.238;6.698;2024-01-16T05:13:48;10.10;;;5.77;;
9898;SDS011;4988;49.238;6.698;2024-01-16T05:16:14;10.57;;;6.23;;
9898;SDS011;4988;49.238;6.698;2024-01-16T05:18:42;9.53;;;6.07;;
9898;SDS011;4988;49.238;6.698;2024-01-16T05:21:08;12.57;;;7.03;;
9898;SDS011;4988;49.238;6.698;2024-01-16T05:23:33;11.57;;;6.63;;
9898;SDS011;4988;49.238;6.698;2024-01-16T05:25:58;12.67;;;6.43;;
9898;SDS011;4988;49.238;6.698;2024-01-16T05:28:24;10.57;;;6.93;;
9898;SDS011;4988;49.238;6.698;2024-01-16T05:30:49;10.43;;;6.83;;
9898;SDS011;4988;49.238;6.698;2024-01-16T05:33:14;12.23;;;6.97;;
9898;SDS011;4988;49.238;6.698;2024-01-16T05:35:40;12.07;;;6.97;;
9898;SDS011;4988;49.238;6.698;2024-01-16T05:38:05;14.10;;;7.10;;
9898;SDS011;4988;49.238;6.698;2024-01-16T05:40:31;14.20;;;7.18;;
9898;SDS011;4988;49.238;6.698;2024-01-16T05:42:57;12.33;;;6.10;;
9898;SDS011;4988;49.238;6.698;2024-01-16T05:45:22;13.37;;;7.10;;
9898;SDS011;4988;49.238;6.698;2024-01-16T05:47:47;11.13;;;7.20;;
9898;SDS011;4988;49.238;6.698;2024-01-16T05:50:13;14.27;;;7.10;;
9898;SDS011;4988;49.238;6.698;2024-01-16T05:52:38;11.53;;;6.77;;
9898;SDS011;4988;49.238;6.698;2024-01-16T05:55:05;14.80;;;7.20;;
9898;SDS011;4988;49.238;6.698;2024-01-16T05:57:31;14.73;;;7.60;;
9898;SDS011;4988;49.238;6.698;2024-01-16T05:59:58;12.10;;;7.25;;
9898;SDS011;4988;49.238;6.698;2024-01-16T06:02:23;13.03;;;7.30;;
9898;SDS011;4988;49.238;6.698;2024-01-16T06:04:49;11.93;;;7.00;;
9898;SDS011;4988;49.238;6.698;2024-01-16T06:07:14;17.10;;;8.20;;
9898;SDS011;4988;49.238;6.698;2024-01-16T06:09:40;12.63;;;7.40;;
9898;SDS011;4988;49.238;6.698;2024-01-16T06:12:06;15.67;;;8.13;;
9898;SDS011;4988;49.238;6.698;2024-01-16T06:14:32;14.30;;;8.07;;
9898;SDS011;4988;49.238;6.698;2024-01-16T06:16:57;15.97;;;9.43;;
9898;SDS011;4988;49.238;6.698;2024-01-16T06:19:23;15.30;;;8.07;;
9898;SDS011;4988;49.238;6.698;2024-01-16T06:21:48;15.37;;;8.67;;
9898;SDS011;4988;49.238;6.698;2024-01-16T06:24:13;13.13;;;7.73;;
9898;SDS011;4988;49.238;6.698;2024-01-16T06:26:39;18.03;;;8.50;;
9898;SDS011;4988;49.238;6.698;2024-01-16T06:29:04;20.70;;;8.97;;
9898;SDS011;4988;49.238;6.698;2024-01-16T06:31:29;16.93;;;8.93;;
9898;SDS011;4988;49.238;6.698;2024-01-16T06:33:55;16.70;;;8.80;;
9898;SDS011;4988;49.238;6.698;2024-01-16T06:36:20;19.47;;;8.80;;
9898;SDS011;4988;49.238;6.698;2024-01-16T06:38:46;14.67;;;8.73;;
9898;SDS011;4988;49.238;6.698;2024-01-16T06:41:11;16.20;;;9.17;;
9898;SDS011;4988;49.238;6.698;2024-01-16T06:43:36;20.73;;;8.50;;
9898;SDS011;4988;49.238;6.698;2024-01-16T06:46:02;15.63;;;7.43;;
9898;SDS011;4988;49.238;6.698;2024-01-16T06:48:27;11.80;;;7.53;;
9898;SDS011;4988;49.238;6.698;2024-01-16T06:50:53;11.93;;;6.67;;
9898;SDS011;4988;49.238;6.698;2024-01-16T06:53:18;11.00;;;6.30;;
9898;SDS011;4988;49.238;6.698;2024-01-16T06:55:43;15.77;;;8.20;;
9898;SDS011;4988;49.238;6.698;2024-01-16T06:58:09;14.90;;;7.67;;
9898;SDS011;4988;49.238;6.698;2024-01-16T07:00:35;15.63;;;8.60;;
9898;SDS011;4988;49.238;6.698;2024-01-16T07:03:00;12.53;;;7.73;;
9898;SDS011;4988;49.238;6.698;2024-01-16T07:05:25;12.30;;;7.40;;
9898;SDS011;4988;49.238;6.698;2024-01-16T07:07:51;14.20;;;7.30;;
9898;SDS011;4988;49.238;6.698;2024-01-16T07:10:16;13.87;;;7.17;;
9898;SDS011;4988;49.238;6.698;2024-01-16T07:12:47;11.10;;;6.35;;
9898;SDS011;4988;49.238;6.698;2024-01-16T07:15:14;11.63;;;5.97;;
9898;SDS011;4988;49.238;6.698;2024-01-16T07:17:40;11.50;;;6.93;;
9898;SDS011;4988;49.238;6.698;2024-01-16T07:20:05;13.20;;;7.03;;
9898;SDS011;4988;49.238;6.698;2024-01-16T07:22:32;11.98;;;7.28;;
9898;SDS011;4988;49.238;6.698;2024-01-16T07:24:58;12.38;;;6.35;;
9898;SDS011;4988;49.238;6.698;2024-01-16T07:27:24;13.93;;;6.53;;
9898;SDS011;4988;49.238;6.698;2024-01-16T07:29:49;9.83;;;6.73;;
9898;SDS011;4988;49.238;6.698;2024-01-16T07:32:14;9.13;;;6.40;;
9898;SDS011;4988;49.238;6.698;2024-01-16T07:34:40;13.40;;;6.30;;
9898;SDS011;4988;49.238;6.698;2024-01-16T07:37:05;11.57;;;7.37;;
9898;SDS011;4988;49.238;6.698;2024-01-16T07:39:30;14.37;;;6.87;;
9898;SDS011;4988;49.238;6.698;2024-01-16T07:41:56;10.37;;;6.47;;
9898;SDS011;4988;49.238;6.698;2024-01-16T07:44:21;11.13;;;6.90;;
9898;SDS011;4988;49.238;6.698;2024-01-16T07:46:46;13.30;;;7.33;;
9898;SDS011;4988;49.238;6.698;2024-01-16T07:49:12;14.90;;;7.43;;
9898;SDS011;4988;49.238;6.698;2024-01-16T07:51:37;13.97;;;7.33;;
9898;SDS011;4988;49.238;6.698;2024-01-16T07:54:06;13.67;;;7.13;;
9898;SDS011;4988;49.238;6.698;2024-01-16T07:56:33;11.80;;;6.88;;
9898;SDS011;4988;49.238;6.698;2024-01-16T07:58:59;11.50;;;6.80;;
9898;SDS011;4988;49.238;6.698;2024-01-16T08:01:24;12.37;;;6.50;;
9898;SDS011;4988;49.238;6.698;2024-01-16T08:03:50;12.57;;;6.83;;
9898;SDS011;4988;49.238;6.698;2024-01-16T08:06:15;12.67;;;7.23;;
9898;SDS011;4988;49.238;6.698;2024-01-16T08:08:40;13.23;;;7.13;;
9898;SDS011;4988;49.238;6.698;2024-01-16T08:11:06;14.50;;;7.50;;
9898;SDS011;4988;49.238;6.698;2024-01-16T08:13:32;13.00;;;8.02;;
9898;SDS011;4988;49.238;6.698;2024-01-16T08:15:57;13.10;;;7.70;;
9898;SDS011;4988;49.238;6.698;2024-01-16T08:18:23;17.43;;;9.97;;
9898;SDS011;4988;49.238;6.698;2024-01-16T08:20:48;19.23;;;9.73;;
9898;SDS011;4988;49.238;6.698;2024-01-16T08:23:13;18.13;;;8.37;;
9898;SDS011;4988;49.238;6.698;2024-01-16T08:25:39;15.37;;;8.97;;
9898;SDS011;4988;49.238;6.698;2024-01-16T08:28:04;13.00;;;6.77;;
9898;SDS011;4988;49.238;6.698;2024-01-16T08:30:30;11.23;;;7.40;;
9898;SDS011;4988;49.238;6.698;2024-01-16T08:32:55;15.97;;;6.87;;
9898;SDS011;4988;49.238;6.698;2024-01-16T08:35:20;15.03;;;8.27;;
9898;SDS011;4988;49.238;6.698;2024-01-16T08:37:46;16.47;;;8.37;;
9898;SDS011;4988;49.238;6.698;2024-01-16T08:40:12;19.23;;;9.15;;
9898;SDS011;4988;49.238;6.698;2024-01-16T08:42:37;22.33;;;10.37;;
9898;SDS011;4988;49.238;6.698;2024-01-16T08:45:03;51.70;;;19.30;;
9898;SDS011;4988;49.238;6.698;2024-01-16T08:47:30;55.40;;;22.58;;
9898;SDS011;4988;49.238;6.698;2024-01-16T08:49:55;35.73;;;15.77;;
9898;SDS011;4988;49.238;6.698;2024-01-16T08:52:21;21.80;;;9.93;;
9898;SDS011;4988;49.238;6.698;2024-01-16T08:54:46;15.77;;;8.70;;
9898;SDS011;4988;49.238;6.698;2024-01-16T08:57:13;61.85;;;25.02;;
9898;SDS011;4988;49.238;6.698;2024-01-16T08:59:39;57.13;;;23.50;;
9898;SDS011;4988;49.238;6.698;2024-01-16T09:02:05;43.78;;;17.88;;
9898;SDS011;4988;49.238;6.698;2024-01-16T09:04:30;40.77;;;16.73;;
9898;SDS011;4988;49.238;6.698;2024-01-16T09:06:56;27.83;;;14.53;;
9898;SDS011;4988;49.238;6.698;2024-01-16T09:09:21;36.00;;;15.67;;
9898;SDS011;4988;49.238;6.698;2024-01-16T09:11:46;33.23;;;16.27;;
9898;SDS011;4988;49.238;6.698;2024-01-16T09:14:12;34.33;;;16.37;;
9898;SDS011;4988;49.238;6.698;2024-01-16T09:16:37;37.60;;;15.83;;
9898;SDS011;4988;49.238;6.698;2024-01-16T09:19:02;33.10;;;15.37;;
9898;SDS011;4988;49.238;6.698;2024-01-16T09:21:28;39.93;;;17.03;;
9898;SDS011;4988;49.238;6.698;2024-01-16T09:23:53;31.50;;;14.87;;
9898;SDS011;4988;49.238;6.698;2024-01-16T09:26:18;33.73;;;13.50;;
9898;SDS011;4988;49.238;6.698;2024-01-16T09:28:44;25.00;;;11.83;;
9898;SDS011;4988;49.238;6.698;2024-01-16T09:31:09;28.27;;;12.87;;
9898;SDS011;4988;49.238;6.698;2024-01-16T09:33:34;29.47;;;12.33;;
9898;SDS011;4988;49.238;6.698;2024-01-16T09:36:00;25.83;;;11.37;;
9898;SDS011;4988;49.238;6.698;2024-01-16T09:38:25;30.67;;;13.03;;
9898;SDS011;4988;49.238;6.698;2024-01-16T09:40:50;30.23;;;12.40;;
9898;SDS011;4988;49.238;6.698;2024-01-16T09:43:17;25.77;;;12.07;;
9898;SDS011;4988;49.238;6.698;2024-01-16T09:45:43;25.13;;;11.70;;
9898;SDS011;4988;49.238;6.698;2024-01-16T09:48:09;23.58;;;11.52;;
9898;SDS011;4988;49.238;6.698;2024-01-16T09:50:36;23.23;;;11.57;;
9898;SDS011;4988;49.238;6.698;2024-01-16T09:53:05;22.17;;;10.93;;
9898;SDS011;4988;49.238;6.698;2024-01-16T09:55:30;27.23;;;10.97;;
9898;SDS011;4988;49.238;6.698;2024-01-16T09:57:56;24.47;;;10.63;;
9898;SDS011;4988;49.238;6.698;2024-01-16T10:00:22;19.05;;;10.18;;
9898;SDS011;4988;49.238;6.698;2024-01-16T10:02:50;26.23;;;12.02;;
9898;SDS011;4988;49.238;6.698;2024-01-16T10:05:16;29.13;;;12.43;;
9898;SDS011;4988;49.238;6.698;2024-01-16T10:07:42;18.93;;;9.90;;
9898;SDS011;4988;49.238;6.698;2024-01-16T10:10:10;26.17;;;9.88;;
9898;SDS011;4988;49.238;6.698;2024-01-16T10:12:37;22.40;;;10.20;;
9898;SDS011;4988;49.238;6.698;2024-01-16T10:15:07;25.77;;;12.25;;
9898;SDS011;4988;49.238;6.698;2024-01-16T10:17:40;23.90;;;12.27;;
9898;SDS011;4988;49.238;6.698;2024-01-16T10:20:07;22.20;;;10.00;;
9898;SDS011;4988;49.238;6.698;2024-01-16T10:22:38;24.20;;;9.85;;
9898;SDS011;4988;49.238;6.698;2024-01-16T10:25:05;22.48;;;9.98;;
9898;SDS011;4988;49.238;6.698;2024-01-16T10:27:32;21.25;;;10.55;;
9898;SDS011;4988;49.238;6.698;2024-01-16T10:29:58;26.75;;;11.38;;
9898;SDS011;4988;49.238;6.698;2024-01-16T10:32:42;19.63;;;10.17;;
9898;SDS011;4988;49.238;6.698;2024-01-16T10:35:09;19.77;;;10.27;;
9898;SDS011;4988;49.238;6.698;2024-01-16T10:40:08;28.80;;;11.60;;
9898;SDS011;4988;49.238;6.698;2024-01-16T10:42:33;26.40;;;11.23;;
9898;SDS011;4988;49.238;6.698;2024-01-16T10:44:58;29.53;;;10.97;;
9898;SDS011;4988;49.238;6.698;2024-01-16T10:47:24;26.47;;;11.20;;
9898;SDS011;4988;49.238;6.698;2024-01-16T10:49:49;27.87;;;12.37;;
9898;SDS011;4988;49.238;6.698;2024-01-16T10:52:15;25.00;;;11.43;;
9898;SDS011;4988;49.238;6.698;2024-01-16T10:54:42;22.77;;;10.98;;
9898;SDS011;4988;49.238;6.698;2024-01-16T10:57:12;29.63;;;12.00;;
9898;SDS011;4988;49.238;6.698;2024-01-16T10:59:48;24.35;;;11.55;;
9898;SDS011;4988;49.238;6.698;2024-01-16T11:02:21;29.02;;;11.23;;
9898;SDS011;4988;49.238;6.698;2024-01-16T11:04:53;23.13;;;10.13;;
9898;SDS011;4988;49.238;6.698;2024-01-16T11:07:20;27.00;;;12.15;;
9898;SDS011;4988;49.238;6.698;2024-01-16T11:09:47;31.90;;;12.73;;
9898;SDS011;4988;49.238;6.698;2024-01-16T11:12:13;30.10;;;12.07;;
9898;SDS011;4988;49.238;6.698;2024-01-16T11:14:41;28.92;;;12.02;;
9898;SDS011;4988;49.238;6.698;2024-01-16T11:17:08;30.58;;;12.95;;
9898;SDS011;4988;49.238;6.698;2024-01-16T11:19:42;26.70;;;13.27;;
9898;SDS011;4988;49.238;6.698;2024-01-16T11:22:08;27.27;;;10.43;;
9898;SDS011;4988;49.238;6.698;2024-01-16T11:24:33;27.70;;;11.30;;
9898;SDS011;4988;49.238;6.698;2024-01-16T11:26:58;24.37;;;10.97;;
9898;SDS011;4988;49.238;6.698;2024-01-16T11:31:52;20.85;;;9.55;;
9898;SDS011;4988;49.238;6.698;2024-01-16T11:37:07;22.42;;;10.15;;
9898;SDS011;4988;49.238;6.698;2024-01-16T11:39:32;19.73;;;9.67;;
9898;SDS011;4988;49.238;6.698;2024-01-16T11:41:58;27.07;;;10.03;;
9898;SDS011;4988;49.238;6.698;2024-01-16T11:47:23;18.97;;;9.40;;
9898;SDS011;4988;49.238;6.698;2024-01-16T11:49:50;20.17;;;9.77;;
9898;SDS011;4988;49.238;6.698;2024-01-16T11:55:24;20.00;;;9.38;;
9898;SDS011;4988;49.238;6.698;2024-01-16T12:00:47;24.30;;;9.33;;
9898;SDS011;4988;49.238;6.698;2024-01-16T12:03:16;16.08;;;8.18;;
9898;SDS011;4988;49.238;6.698;2024-01-16T12:05:54;17.88;;;8.32;;
9898;SDS011;4988;49.238;6.698;2024-01-16T12:08:23;22.98;;;8.32;;
9898;SDS011;4988;49.238;6.698;2024-01-16T12:10:48;15.53;;;7.70;;
9898;SDS011;4988;49.238;6.698;2024-01-16T12:13:14;15.13;;;7.07;;
9898;SDS011;4988;49.238;6.698;2024-01-16T12:15:39;13.63;;;7.10;;
9898;SDS011;4988;49.238;6.698;2024-01-16T12:18:05;11.13;;;6.87;;
9898;SDS011;4988;49.238;6.698;2024-01-16T12:20:31;12.77;;;6.40;;
9898;SDS011;4988;49.238;6.698;2024-01-16T12:23:01;9.98;;;4.50;;
9898;SDS011;4988;49.238;6.698;2024-01-16T12:25:31;8.68;;;4.68;;
9898;SDS011;4988;49.238;6.698;2024-01-16T12:28:02;5.75;;;4.13;;
9898;SDS011;4988;49.238;6.698;2024-01-16T12:30:28;6.75;;;4.07;;
9898;SDS011;4988;49.238;6.698;2024-01-16T12:33:07;9.95;;;4.57;;
9898;SDS011;4988;49.238;6.698;2024-01-16T12:35:34;9.80;;;4.28;;
9898;SDS011;4988;49.238;6.698;2024-01-16T12:38:06;7.45;;;4.35;;
9898;SDS011;4988;49.238;6.698;2024-01-16T12:40:36;6.35;;;4.40;;
9898;SDS011;4988;49.238;6.698;2024-01-16T12:43:02;7.05;;;4.60;;
9898;SDS011;4988;49.238;6.698;2024-01-16T12:45:29;8.90;;;4.35;;
9898;SDS011;4988;49.238;6.698;2024-01-16T12:47:56;13.32;;;5.43;;
9898;SDS011;4988;49.238;6.698;2024-01-16T12:50:25;8.55;;;4.60;;
9898;SDS011;4988;49.238;6.698;2024-01-16T12:53:10;12.82;;;5.00;;
9898;SDS011;4988;49.238;6.698;2024-01-16T12:55:37;7.45;;;4.30;;
9898;SDS011;4988;49.238;6.698;2024-01-16T12:58:20;10.98;;;5.03;;
9898;SDS011;4988;49.238;6.698;2024-01-16T13:00:49;21.15;;;10.05;;
9898;SDS011;4988;49.238;6.698;2024-01-16T13:03:19;20.92;;;9.57;;
9898;SDS011;4988;49.238;6.698;2024-01-16T13:05:46;6.00;;;4.10;;
9898;SDS011;4988;49.238;6.698;2024-01-16T13:08:19;11.43;;;4.50;;
9898;SDS011;4988;49.238;6.698;2024-01-16T13:10:46;11.03;;;4.80;;
9898;SDS011;4988;49.238;6.698;2024-01-16T13:15:42;8.90;;;5.38;;
9898;SDS011;4988;49.238;6.698;2024-01-16T13:18:21;12.20;;;5.40;;
9898;SDS011;4988;49.238;6.698;2024-01-16T13:20:51;16.10;;;8.45;;
9898;SDS011;4988;49.238;6.698;2024-01-16T13:23:18;10.93;;;5.90;;
9898;SDS011;4988;49.238;6.698;2024-01-16T13:25:45;16.73;;;6.00;;
9898;SDS011;4988;49.238;6.698;2024-01-16T13:28:15;7.50;;;4.28;;
9898;SDS011;4988;49.238;6.698;2024-01-16T13:30:42;11.27;;;5.75;;
9898;SDS011;4988;49.238;6.698;2024-01-16T13:33:09;9.38;;;4.93;;
9898;SDS011;4988;49.238;6.698;2024-01-16T13:35:35;9.20;;;4.77;;
9898;SDS011;4988;49.238;6.698;2024-01-16T13:38:04;8.82;;;4.60;;
9898;SDS011;4988;49.238;6.698;2024-01-16T13:40:30;11.57;;;4.33;;
9898;SDS011;4988;49.238;6.698;2024-01-16T13:42:55;10.37;;;4.33;;
9898;SDS011;4988;49.238;6.698;2024-01-16T13:45:21;10.57;;;5.10;;
9898;SDS011;4988;49.238;6.698;2024-01-16T13:47:46;6.60;;;3.50;;
9898;SDS011;4988;49.238;6.698;2024-01-16T13:50:12;9.33;;;4.90;;
9898;SDS011;4988;49.238;6.698;2024-01-16T13:52:37;8.80;;;4.30;;
9898;SDS011;4988;49.238;6.698;2024-01-16T13:55:05;8.13;;;3.90;;
9898;SDS011;4988;49.238;6.698;2024-01-16T13:57:33;9.73;;;3.85;;
9898;SDS011;4988;49.238;6.698;2024-01-16T14:00:05;10.65;;;3.95;;
9898;SDS011;4988;49.238;6.698;2024-01-16T14:02:32;6.13;;;3.78;;
9898;SDS011;4988;49.238;6.698;2024-01-16T14:05:02;7.18;;;3.65;;
9898;SDS011;4988;49.238;6.698;2024-01-16T14:07:27;11.83;;;4.10;;
9898;SDS011;4988;49.238;6.698;2024-01-16T14:09:53;6.73;;;4.17;;
9898;SDS011;4988;49.238;6.698;2024-01-16T14:12:18;15.07;;;5.23;;
9898;SDS011;4988;49.238;6.698;2024-01-16T14:14:44;9.83;;;4.93;;
9898;SDS011;4988;49.238;6.698;2024-01-16T14:17:10;13.00;;;6.85;;
9898;SDS011;4988;49.238;6.698;2024-01-16T14:19:36;9.82;;;5.10;;
9898;SDS011;4988;49.238;6.698;2024-01-16T14:22:03;15.63;;;7.20;;
9898;SDS011;4988;49.238;6.698;2024-01-16T14:24:29;10.27;;;5.57;;
9898;SDS011;4988;49.238;6.698;2024-01-16T14:26:54;13.83;;;6.00;;
9898;SDS011;4988;49.238;6.698;2024-01-16T14:29:21;10.63;;;5.80;;
9898;SDS011;4988;49.238;6.698;2024-01-16T14:31:47;16.75;;;6.72;;
9898;SDS011;4988;49.238;6.698;2024-01-16T14:34:13;11.40;;;5.97;;
9898;SDS011;4988;49.238;6.698;2024-01-16T14:36:39;13.57;;;6.47;;
9898;SDS011;4988;49.238;6.698;2024-01-16T14:39:05;12.05;;;6.05;;
9898;SDS011;4988;49.238;6.698;2024-01-16T14:41:31;12.97;;;6.33;;
9898;SDS011;4988;49.238;6.698;2024-01-16T14:43:57;16.27;;;5.97;;
9898;SDS011;4988;49.238;6.698;2024-01-16T14:46:23;11.07;;;5.72;;
9898;SDS011;4988;49.238;6.698;2024-01-16T14:48:48;13.20;;;6.27;;
9898;SDS011;4988;49.238;6.698;2024-01-16T14:51:13;11.70;;;6.50;;
9898;SDS011;4988;49.238;6.698;2024-01-16T14:53:39;11.40;;;6.47;;
9898;SDS011;4988;49.238;6.698;2024-01-16T14:56:04;13.50;;;6.90;;
9898;SDS011;4988;49.238;6.698;2024-01-16T14:58:30;11.27;;;5.77;;
9898;SDS011;4988;49.238;6.698;2024-01-16T15:00:55;14.33;;;5.90;;
9898;SDS011;4988;49.238;6.698;2024-01-16T15:03:24;12.27;;;6.63;;
9898;SDS011;4988;49.238;6.698;2024-01-16T15:05:50;13.43;;;5.82;;
9898;SDS011;4988;49.238;6.698;2024-01-16T15:08:18;14.77;;;6.40;;
9898;SDS011;4988;49.238;6.698;2024-01-16T15:10:43;13.73;;;6.93;;
9898;SDS011;4988;49.238;6.698;2024-01-16T15:13:09;14.07;;;6.97;;